Aviation Digital Data Service (ADDS)

Output produced by METARs form (0027 UTC 29 June 2017)
found at http://aviationweather.gov/adds/metars/
 
KVQQ 282325Z 2900/2924 08005KT P6SM SCT025 BKN250 
     FM290200 06003KT P6SM SCT020 BKN250 
     FM291400 09006KT P6SM BKN025 BKN250 
     FM291800 09007KT P6SM VCTS BKN030CB BKN250